Time;durP1;ratioP1;P1;durP2;ratioP2;P2;SDS_P1;SDS_P2;PMS_P1;PMS_P2;Temp;Humidity;BMP_temperature;BMP_pressure;BME280_temperature;BME280_humidity;BME280_pressure;Samples;Min_cycle;Max_cycle;Signal;HPM_P1;HPM_P2
2023/05/10 00:00:23;;;;;;;;;;;17.30;56.90;;;;;;4967182;28;19982;-76
2023/05/10 00:02:48;;;;;;;;;;;17.30;56.90;;;;;;5018153;28;19928;-78
2023/05/10 00:05:14;;;;;;;;;;;17.30;56.90;;;;;;4988696;28;19928;-78
2023/05/10 00:07:40;;;;;;;;;;;17.30;56.90;;;;;;5004173;28;20055;-77
2023/05/10 00:10:05;;;;;;;;;;;17.20;57.00;;;;;;4986358;28;20308;-77
2023/05/10 00:12:31;;;;;;;;;;;17.20;57.00;;;;;;4992319;28;19936;-77
2023/05/10 00:14:56;;;;;;;;;;;17.20;57.00;;;;;;4998312;28;20004;-76
2023/05/10 00:17:22;;;;;;;;;;;17.20;57.10;;;;;;4997879;28;20406;-76
2023/05/10 00:19:48;;;;;;;;;;;17.20;57.10;;;;;;5007937;28;19927;-76
2023/05/10 00:22:13;;;;;;;;;;;17.10;57.10;;;;;;4981656;28;20626;-77
2023/05/10 00:24:38;;;;;;;;;;;17.10;57.20;;;;;;5006171;28;19936;-76
2023/05/10 00:27:04;;;;;;;;;;;17.10;57.20;;;;;;4998508;28;19968;-77
2023/05/10 00:29:29;;;;;;;;;;;17.10;57.30;;;;;;5013639;28;19982;-77
2023/05/10 00:31:55;;;;;;;;;;;17.00;57.30;;;;;;4994790;28;19955;-76
2023/05/10 00:34:20;;;;;;;;;;;17.00;57.30;;;;;;5011267;28;20011;-77
2023/05/10 00:36:46;;;;;;;;;;;17.00;57.40;;;;;;5029969;28;19924;-78
2023/05/10 00:39:12;;;;;;;;;;;16.90;57.40;;;;;;5027874;28;19978;-76
2023/05/10 00:41:37;;;;;;;;;;;16.90;57.40;;;;;;5009752;28;19951;-76
2023/05/10 00:44:04;;;;;;;;;;;16.90;57.40;;;;;;5004273;28;20388;-77
2023/05/10 00:46:29;;;;;;;;;;;16.90;57.50;;;;;;5012852;28;19971;-77
2023/05/10 00:48:54;;;;;;;;;;;16.90;57.50;;;;;;4999864;28;19975;-76
2023/05/10 00:51:20;;;;;;;;;;;16.80;57.50;;;;;;5010553;28;19932;-76
2023/05/10 00:53:46;;;;;;;;;;;16.80;57.60;;;;;;4994532;28;20825;-77
2023/05/10 00:56:12;;;;;;;;;;;16.80;57.60;;;;;;4997757;28;20543;-77
2023/05/10 00:58:38;;;;;;;;;;;16.70;57.60;;;;;;5028144;28;21115;-76
2023/05/10 01:01:03;;;;;;;;;;;16.80;57.70;;;;;;5007694;28;19927;-76
2023/05/10 01:03:29;;;;;;;;;;;16.70;57.70;;;;;;5014287;28;19929;-77
2023/05/10 01:05:55;;;;;;;;;;;16.70;57.80;;;;;;5005246;28;19925;-77
2023/05/10 01:08:20;;;;;;;;;;;16.60;57.80;;;;;;4995707;28;20003;-76
2023/05/10 01:10:46;;;;;;;;;;;16.60;57.80;;;;;;5021393;28;20392;-77
2023/05/10 01:13:12;;;;;;;;;;;16.50;57.90;;;;;;5010472;28;19921;-76
2023/05/10 01:15:37;;;;;;;;;;;16.60;57.90;;;;;;4992424;28;19921;-77
2023/05/10 01:18:03;;;;;;;;;;;16.50;57.90;;;;;;4997281;28;19917;-76
2023/05/10 01:20:30;;;;;;;;;;;16.50;57.90;;;;;;5012955;28;19921;-77
2023/05/10 01:23:04;;;;;;;;;;;16.50;58.00;;;;;;5019618;28;19985;-77
2023/05/10 01:25:30;;;;;;;;;;;16.50;58.00;;;;;;5003348;28;20007;-76
2023/05/10 01:28:17;;;;;;;;;;;16.50;58.10;;;;;;5007720;28;19925;-77
2023/05/10 03:29:16;;;;;;;;;;;15.20;59.30;;;;;;4991040;28;19929;-77
2023/05/10 03:31:41;;;;;;;;;;;15.10;59.40;;;;;;4994035;28;19922;-77
2023/05/10 03:34:07;;;;;;;;;;;15.10;59.50;;;;;;4990806;28;20395;-77
2023/05/10 03:36:32;;;;;;;;;;;15.10;59.50;;;;;;4967531;28;19921;-78
2023/05/10 03:38:58;;;;;;;;;;;15.10;59.50;;;;;;4985836;28;19949;-78
2023/05/10 03:41:24;;;;;;;;;;;15.10;59.60;;;;;;4997333;28;19921;-77
2023/05/10 03:43:50;;;;;;;;;;;15.00;59.60;;;;;;4977219;28;20007;-77
2023/05/10 03:46:15;;;;;;;;;;;15.00;59.60;;;;;;5000634;28;19948;-78
2023/05/10 03:48:41;;;;;;;;;;;15.00;59.60;;;;;;5009143;28;21383;-77
2023/05/10 03:51:06;;;;;;;;;;;15.00;59.60;;;;;;5020951;28;19946;-77
2023/05/10 03:53:32;;;;;;;;;;;14.90;59.60;;;;;;5012101;28;20549;-76
2023/05/10 03:55:57;;;;;;;;;;;15.00;60.40;;;;;;5014580;28;19928;-77
2023/05/10 03:58:23;;;;;;;;;;;14.90;59.70;;;;;;5013703;28;19928;-77
2023/05/10 04:00:48;;;;;;;;;;;14.90;59.70;;;;;;5023623;28;19964;-76
2023/05/10 04:03:14;;;;;;;;;;;14.90;59.80;;;;;;5025970;28;19917;-77
2023/05/10 04:05:39;;;;;;;;;;;14.80;59.70;;;;;;5011228;28;20396;-77
2023/05/10 04:08:05;;;;;;;;;;;14.80;60.50;;;;;;5013618;28;19930;-77
2023/05/10 04:10:30;;;;;;;;;;;14.80;59.80;;;;;;5009513;28;19979;-77
2023/05/10 04:12:56;;;;;;;;;;;14.80;59.80;;;;;;5028301;28;20682;-77
2023/05/10 04:15:21;;;;;;;;;;;14.80;59.80;;;;;;5011802;28;19925;-77
2023/05/10 04:17:47;;;;;;;;;;;14.80;59.90;;;;;;5009085;28;20008;-77
2023/05/10 04:20:12;;;;;;;;;;;14.70;59.90;;;;;;5028639;28;20298;-77
2023/05/10 04:22:38;;;;;;;;;;;14.70;60.00;;;;;;4990048;28;19925;-77
2023/05/10 04:25:04;;;;;;;;;;;14.70;59.90;;;;;;5012075;28;19997;-77
2023/05/10 04:27:29;;;;;;;;;;;14.70;60.00;;;;;;5006377;28;20017;-76
2023/05/10 04:29:55;;;;;;;;;;;14.70;60.00;;;;;;5007377;28;19925;-77
2023/05/10 04:32:20;;;;;;;;;;;14.70;60.00;;;;;;4976627;28;20465;-77
2023/05/10 04:34:46;;;;;;;;;;;14.70;60.10;;;;;;4984578;28;19924;-78
2023/05/10 04:37:12;;;;;;;;;;;14.70;60.10;;;;;;4991445;28;19953;-77
2023/05/10 04:39:37;;;;;;;;;;;14.70;60.20;;;;;;4985240;28;20468;-77
2023/05/10 04:42:02;;;;;;;;;;;14.60;60.10;;;;;;4982550;28;19921;-76
2023/05/10 04:44:28;;;;;;;;;;;14.60;60.10;;;;;;4984614;28;20072;-76
2023/05/10 04:46:54;;;;;;;;;;;14.60;60.10;;;;;;4978914;28;19926;-77
2023/05/10 04:49:19;;;;;;;;;;;14.60;60.10;;;;;;4982013;28;19957;-76
2023/05/10 04:51:45;;;;;;;;;;;14.60;60.20;;;;;;4979649;28;19922;-77
2023/05/10 04:54:10;;;;;;;;;;;14.70;60.20;;;;;;4978957;28;20320;-77
2023/05/10 04:56:36;;;;;;;;;;;14.70;60.20;;;;;;4963328;28;19941;-76
2023/05/10 04:59:01;;;;;;;;;;;14.70;60.20;;;;;;4974079;28;20008;-77
2023/05/10 05:01:27;;;;;;;;;;;14.70;60.10;;;;;;4962048;28;19921;-77
2023/05/10 05:03:52;;;;;;;;;;;14.80;60.20;;;;;;4985689;28;20004;-76
2023/05/10 05:06:18;;;;;;;;;;;14.80;60.20;;;;;;4977703;28;19962;-76
2023/05/10 05:08:43;;;;;;;;;;;14.80;60.20;;;;;;4976105;28;19926;-77
2023/05/10 05:11:09;;;;;;;;;;;14.80;60.20;;;;;;4963707;28;20567;-78
2023/05/10 05:13:34;;;;;;;;;;;14.80;60.10;;;;;;4974056;28;20015;-78
2023/05/10 05:16:01;;;;;;;;;;;14.80;60.10;;;;;;4982095;28;19929;-76
2023/05/10 05:18:26;;;;;;;;;;;14.80;60.30;;;;;;4995642;28;19922;-77
2023/05/10 05:20:52;;;;;;;;;;;14.80;60.10;;;;;;4969466;28;19980;-77
2023/05/10 05:23:18;;;;;;;;;;;14.90;60.20;;;;;;4984528;28;20373;-77
2023/05/10 05:25:43;;;;;;;;;;;14.90;60.20;;;;;;4980863;28;20332;-77
2023/05/10 05:28:09;;;;;;;;;;;14.90;60.20;;;;;;4990054;28;19983;-77
2023/05/10 05:30:34;;;;;;;;;;;14.80;60.10;;;;;;4999432;28;19943;-78
2023/05/10 05:33:00;;;;;;;;;;;14.90;60.20;;;;;;4998111;28;19961;-77
2023/05/10 05:35:25;;;;;;;;;;;14.90;60.20;;;;;;5001673;28;19924;-76
2023/05/10 05:37:51;;;;;;;;;;;14.90;60.20;;;;;;4983597;28;20459;-77
2023/05/10 05:40:16;;;;;;;;;;;14.90;60.10;;;;;;5001772;28;20036;-77
2023/05/10 05:42:42;;;;;;;;;;;14.90;60.10;;;;;;5006043;28;20041;-76
2023/05/10 05:45:08;;;;;;;;;;;15.00;60.20;;;;;;5001997;28;19960;-76
2023/05/10 05:47:34;;;;;;;;;;;15.00;60.20;;;;;;4999483;28;20326;-76
2023/05/10 05:49:59;;;;;;;;;;;15.00;60.10;;;;;;4999027;28;20469;-77
2023/05/10 05:52:25;;;;;;;;;;;15.00;60.10;;;;;;4996153;28;20439;-77
2023/05/10 05:54:50;;;;;;;;;;;15.10;61.00;;;;;;5000749;28;19921;-78
2023/05/10 05:57:15;;;;;;;;;;;15.10;60.20;;;;;;4995672;28;19944;-76
2023/05/10 05:59:43;;;;;;;;;;;15.20;60.10;;;;;;4996895;28;19948;-77
2023/05/10 06:02:09;;;;;;;;;;;15.20;60.10;;;;;;4998470;28;20652;-76
2023/05/10 06:04:34;;;;;;;;;;;15.20;60.10;;;;;;4998326;28;20013;-77
2023/05/10 06:07:00;;;;;;;;;;;15.30;60.20;;;;;;4997836;28;20403;-77
2023/05/10 06:09:25;;;;;;;;;;;15.30;60.00;;;;;;4998266;28;19921;-77
2023/05/10 06:11:51;;;;;;;;;;;15.40;60.00;;;;;;4999417;28;19922;-76
2023/05/10 06:14:16;;;;;;;;;;;15.50;60.10;;;;;;4999751;28;20606;-77
2023/05/10 06:16:42;;;;;;;;;;;15.60;60.00;;;;;;4998843;28;20459;-76
2023/05/10 06:19:07;;;;;;;;;;;15.60;60.00;;;;;;4998439;28;19926;-77
2023/05/10 06:21:33;;;;;;;;;;;15.70;59.90;;;;;;5000724;28;19921;-76
2023/05/10 06:23:58;;;;;;;;;;;15.70;59.90;;;;;;4999323;28;19979;-76
2023/05/10 06:26:24;;;;;;;;;;;15.80;59.90;;;;;;4993690;28;20348;-77
2023/05/10 06:28:50;;;;;;;;;;;15.80;59.80;;;;;;4996368;28;20019;-77
2023/05/10 06:31:15;;;;;;;;;;;15.90;59.80;;;;;;5012730;28;19925;-76
2023/05/10 06:33:41;;;;;;;;;;;15.90;59.70;;;;;;5003479;28;20025;-76
2023/05/10 06:36:06;;;;;;;;;;;15.90;59.70;;;;;;4994828;28;20289;-76
2023/05/10 06:38:32;;;;;;;;;;;16.00;59.70;;;;;;4994909;28;19930;-77
2023/05/10 06:40:57;;;;;;;;;;;16.00;59.70;;;;;;4999264;28;19960;-77
2023/05/10 06:43:24;;;;;;;;;;;15.90;59.70;;;;;;5003061;28;20426;-77
2023/05/10 06:45:50;;;;;;;;;;;15.90;59.70;;;;;;4995703;28;19922;-77
2023/05/10 06:48:15;;;;;;;;;;;15.90;59.70;;;;;;4998245;28;19930;-78
2023/05/10 06:50:41;;;;;;;;;;;15.90;59.80;;;;;;4996820;28;19972;-77
2023/05/10 06:53:06;;;;;;;;;;;15.90;59.90;;;;;;4997937;28;19926;-77
2023/05/10 06:55:32;;;;;;;;;;;15.90;59.90;;;;;;4995995;28;19929;-77
2023/05/10 06:57:57;;;;;;;;;;;15.80;59.90;;;;;;4994367;28;20043;-77
2023/05/10 07:00:23;;;;;;;;;;;15.90;60.00;;;;;;4998872;28;20779;-77
2023/05/10 07:02:48;;;;;;;;;;;15.90;60.00;;;;;;4996066;28;19950;-77
2023/05/10 07:05:14;;;;;;;;;;;15.90;59.90;;;;;;4999616;28;19925;-77
2023/05/10 07:07:40;;;;;;;;;;;16.00;60.00;;;;;;4984606;28;20063;-77
2023/05/10 07:10:06;;;;;;;;;;;16.10;59.90;;;;;;5009446;28;20009;-78
2023/05/10 07:12:31;;;;;;;;;;;16.10;59.90;;;;;;5001040;28;19969;-77
2023/05/10 07:14:56;;;;;;;;;;;16.10;59.80;;;;;;4994342;28;20416;-77
2023/05/10 07:17:22;;;;;;;;;;;16.20;59.80;;;;;;5013119;28;19925;-77
2023/05/10 07:19:48;;;;;;;;;;;16.20;59.80;;;;;;4988550;28;20728;-77
2023/05/10 07:22:14;;;;;;;;;;;16.20;59.80;;;;;;4997778;28;19922;-76
2023/05/10 07:24:40;;;;;;;;;;;16.30;59.90;;;;;;4999638;28;19945;-77
2023/05/10 07:27:05;;;;;;;;;;;16.30;59.80;;;;;;4997262;28;19929;-77
2023/05/10 07:29:31;;;;;;;;;;;16.40;59.80;;;;;;4999085;28;19921;-77
2023/05/10 07:31:56;;;;;;;;;;;16.40;59.70;;;;;;5005016;28;19921;-76
2023/05/10 07:34:22;;;;;;;;;;;16.40;60.00;;;;;;4985894;28;20383;-78
2023/05/10 07:36:47;;;;;;;;;;;16.40;59.80;;;;;;4987283;28;20630;-78
2023/05/10 07:39:13;;;;;;;;;;;16.40;59.70;;;;;;5001668;28;19925;-77
2023/05/10 07:41:38;;;;;;;;;;;16.40;59.70;;;;;;5000312;28;20019;-77
2023/05/10 07:44:04;;;;;;;;;;;16.50;59.70;;;;;;5001962;28;19921;-76
2023/05/10 07:46:30;;;;;;;;;;;16.50;59.70;;;;;;5015888;28;19981;-77
2023/05/10 07:48:55;;;;;;;;;;;16.50;59.70;;;;;;5000241;28;19966;-77
2023/05/10 07:51:21;;;;;;;;;;;16.50;59.70;;;;;;5016047;28;19924;-78
2023/05/10 07:53:46;;;;;;;;;;;16.50;59.70;;;;;;5013574;28;19925;-76
2023/05/10 07:56:22;;;;;;;;;;;16.60;59.70;;;;;;4998108;28;20426;-77
2023/05/10 07:58:47;;;;;;;;;;;16.60;59.70;;;;;;4998826;28;19921;-77
2023/05/10 08:01:12;;;;;;;;;;;16.60;59.70;;;;;;5019074;28;19932;-76
2023/05/10 08:03:38;;;;;;;;;;;16.60;59.70;;;;;;5007722;28;19979;-77
2023/05/10 08:06:03;;;;;;;;;;;16.70;59.70;;;;;;4996715;28;20447;-77
2023/05/10 08:08:29;;;;;;;;;;;16.70;59.70;;;;;;4999173;28;19925;-76
2023/05/10 08:10:54;;;;;;;;;;;16.80;59.70;;;;;;5017652;28;19974;-77
2023/05/10 08:13:20;;;;;;;;;;;16.90;59.60;;;;;;5001966;28;19921;-77
2023/05/10 08:15:46;;;;;;;;;;;16.90;59.60;;;;;;5001010;28;19927;-77
2023/05/10 08:18:12;;;;;;;;;;;17.00;59.50;;;;;;4984635;28;19921;-76
2023/05/10 08:20:37;;;;;;;;;;;17.20;59.50;;;;;;5006084;28;19925;-77
2023/05/10 08:23:03;;;;;;;;;;;17.20;59.30;;;;;;5004722;28;19939;-77
2023/05/10 08:25:28;;;;;;;;;;;17.30;59.30;;;;;;5021819;28;19963;-77
2023/05/10 08:27:53;;;;;;;;;;;17.40;59.30;;;;;;5020932;28;21100;-77
2023/05/10 08:30:19;;;;;;;;;;;17.40;59.30;;;;;;5002843;28;19925;-77
2023/05/10 08:32:45;;;;;;;;;;;17.40;59.20;;;;;;5006892;28;20003;-77
2023/05/10 08:35:10;;;;;;;;;;;17.40;59.20;;;;;;4999420;28;19921;-76
2023/05/10 08:37:35;;;;;;;;;;;17.50;59.20;;;;;;4985270;28;19930;-77
2023/05/10 08:40:01;;;;;;;;;;;17.50;59.10;;;;;;4986529;28;19943;-77
2023/05/10 08:42:28;;;;;;;;;;;17.50;59.10;;;;;;5020535;28;19925;-76
2023/05/10 08:44:53;;;;;;;;;;;17.60;59.10;;;;;;5000697;28;19921;-76
2023/05/10 08:47:19;;;;;;;;;;;17.60;59.10;;;;;;5001932;28;19928;-77
2023/05/10 08:49:45;;;;;;;;;;;17.70;59.10;;;;;;5005778;28;19921;-76
2023/05/10 08:52:11;;;;;;;;;;;17.70;59.10;;;;;;5004841;28;20466;-77
2023/05/10 08:54:39;;;;;;;;;;;17.70;59.00;;;;;;4992226;28;19967;-77
2023/05/10 08:57:04;;;;;;;;;;;17.80;59.00;;;;;;5019182;28;20380;-75
2023/05/10 08:59:30;;;;;;;;;;;17.80;59.00;;;;;;5004136;28;19963;-77
2023/05/10 09:01:57;;;;;;;;;;;17.90;59.00;;;;;;5001648;28;19921;-77
2023/05/10 09:04:22;;;;;;;;;;;18.00;58.90;;;;;;5009937;28;19960;-77
2023/05/10 09:06:48;;;;;;;;;;;18.00;58.80;;;;;;5009748;28;20041;-77
2023/05/10 09:09:13;;;;;;;;;;;18.00;58.80;;;;;;5002540;28;19929;-77
2023/05/10 09:11:39;;;;;;;;;;;18.00;58.80;;;;;;5005337;28;20504;-77
2023/05/10 09:14:04;;;;;;;;;;;18.00;58.80;;;;;;5000987;28;19921;-77
2023/05/10 09:16:30;;;;;;;;;;;18.10;58.80;;;;;;4999211;28;19925;-77
2023/05/10 09:18:55;;;;;;;;;;;18.10;58.80;;;;;;5016801;28;20843;-76
2023/05/10 09:21:21;;;;;;;;;;;18.20;58.80;;;;;;5020921;28;19932;-77
2023/05/10 09:23:47;;;;;;;;;;;18.10;58.70;;;;;;4990358;28;19928;-77
2023/05/10 09:26:12;;;;;;;;;;;18.20;58.80;;;;;;4977662;28;20476;-77
2023/05/10 09:28:50;;;;;;;;;;;18.20;58.80;;;;;;4999107;28;20475;-76
2023/05/10 09:31:16;;;;;;;;;;;18.30;58.80;;;;;;5002287;28;19917;-76
2023/05/10 09:33:45;;;;;;;;;;;18.40;58.70;;;;;;5019441;28;19975;-76
2023/05/10 09:36:11;;;;;;;;;;;18.40;58.70;;;;;;4990519;28;19971;-77
2023/05/10 09:38:46;;;;;;;;;;;18.50;58.60;;;;;;4997553;28;19925;-77
2023/05/10 09:41:16;;;;;;;;;;;18.60;58.60;;;;;;5002285;28;19929;-77
2023/05/10 09:43:42;;;;;;;;;;;18.60;58.50;;;;;;5013901;28;19921;-77
2023/05/10 09:46:11;;;;;;;;;;;18.60;58.40;;;;;;5020031;28;19921;-77
2023/05/10 09:48:46;;;;;;;;;;;18.70;58.40;;;;;;5017593;28;19925;-77
2023/05/10 09:51:19;;;;;;;;;;;18.80;58.30;;;;;;5021239;28;19934;-77
2023/05/10 09:53:44;;;;;;;;;;;18.80;58.30;;;;;;5020169;28;19990;-77
2023/05/10 09:56:10;;;;;;;;;;;18.90;58.30;;;;;;5023004;28;20998;-77
2023/05/10 09:58:36;;;;;;;;;;;19.00;58.20;;;;;;4983734;28;19964;-77
2023/05/10 10:01:02;;;;;;;;;;;19.00;58.10;;;;;;5004700;28;19945;-78
2023/05/10 10:03:29;;;;;;;;;;;19.10;58.10;;;;;;5004476;28;19924;-76
2023/05/10 10:05:55;;;;;;;;;;;19.20;58.10;;;;;;5005097;28;19931;-77
2023/05/10 10:08:21;;;;;;;;;;;19.30;58.00;;;;;;5003736;28;20392;-77
2023/05/10 10:10:46;;;;;;;;;;;19.40;57.90;;;;;;4990264;28;20014;-77
2023/05/10 10:13:12;;;;;;;;;;;19.40;57.90;;;;;;5003742;28;19921;-77
2023/05/10 10:15:38;;;;;;;;;;;19.50;57.80;;;;;;5003723;28;19971;-77
2023/05/10 10:18:03;;;;;;;;;;;19.50;57.80;;;;;;4999193;28;20387;-77
2023/05/10 10:20:29;;;;;;;;;;;19.50;57.80;;;;;;5001308;28;19931;-77
2023/05/10 10:22:55;;;;;;;;;;;19.50;57.70;;;;;;5003312;28;20484;-77
2023/05/10 10:25:21;;;;;;;;;;;19.60;57.80;;;;;;5000138;28;19967;-77
2023/05/10 10:27:53;;;;;;;;;;;19.60;57.70;;;;;;4996616;28;19936;-76
2023/05/10 10:30:23;;;;;;;;;;;19.60;57.70;;;;;;4989481;28;20640;-78
2023/05/10 10:32:49;;;;;;;;;;;19.60;57.70;;;;;;4982730;28;19929;-77
2023/05/10 10:35:14;;;;;;;;;;;19.70;57.70;;;;;;5013393;28;19917;-77
2023/05/10 10:37:44;;;;;;;;;;;19.70;57.70;;;;;;4981374;28;19929;-77
2023/05/10 10:40:28;;;;;;;;;;;19.70;57.60;;;;;;4997554;28;19925;-77
2023/05/10 10:42:54;;;;;;;;;;;19.70;57.60;;;;;;4999027;28;19928;-77
2023/05/10 10:45:20;;;;;;;;;;;19.60;57.60;;;;;;4989137;28;19921;-77
2023/05/10 10:47:45;;;;;;;;;;;19.70;57.70;;;;;;4995529;28;19944;-78
2023/05/10 10:50:12;;;;;;;;;;;19.70;57.70;;;;;;4995859;28;19921;-77
2023/05/10 10:52:38;;;;;;;;;;;19.70;57.60;;;;;;4995969;28;19917;-78
2023/05/10 10:55:13;;;;;;;;;;;19.70;57.70;;;;;;4998262;28;19929;-78
2023/05/10 10:58:00;;;;;;;;;;;19.70;57.70;;;;;;5011274;28;20002;-77
2023/05/10 11:00:27;;;;;;;;;;;19.70;57.60;;;;;;4993751;28;19918;-77
2023/05/10 11:02:55;;;;;;;;;;;19.80;57.60;;;;;;5011572;28;19925;-77
2023/05/10 11:05:25;;;;;;;;;;;19.90;57.60;;;;;;4996732;28;19921;-77
2023/05/10 11:07:54;;;;;;;;;;;20.10;57.50;;;;;;4998722;28;20415;-78
2023/05/10 11:10:20;;;;;;;;;;;20.20;57.40;;;;;;5017760;28;20522;-78
2023/05/10 11:13:01;;;;;;;;;;;20.30;57.30;;;;;;5001355;28;19921;-77
2023/05/10 11:15:35;;;;;;;;;;;20.50;57.20;;;;;;4997640;28;20522;-77
2023/05/10 11:18:19;;;;;;;;;;;20.50;57.00;;;;;;4995068;28;19975;-77
2023/05/10 11:20:51;;;;;;;;;;;20.70;57.00;;;;;;4995572;28;19922;-77
2023/05/10 11:23:17;;;;;;;;;;;20.80;56.90;;;;;;4998689;28;20014;-77
2023/05/10 11:25:46;;;;;;;;;;;20.80;56.80;;;;;;5000265;28;19929;-77
2023/05/10 11:28:12;;;;;;;;;;;20.80;56.70;;;;;;5010053;28;20352;-77
2023/05/10 11:30:38;;;;;;;;;;;20.80;56.70;;;;;;4983504;28;20702;-78
2023/05/10 11:33:03;;;;;;;;;;;20.80;56.80;;;;;;4998141;28;19974;-77
2023/05/10 11:35:29;;;;;;;;;;;20.80;56.80;;;;;;4999318;28;20395;-77
2023/05/10 11:37:55;;;;;;;;;;;20.70;56.80;;;;;;4997119;28;19932;-79
2023/05/10 11:40:26;;;;;;;;;;;20.60;56.80;;;;;;5000553;28;20344;-77
2023/05/10 11:42:52;;;;;;;;;;;20.60;56.90;;;;;;5001158;28;19975;-77
2023/05/10 11:45:17;;;;;;;;;;;20.50;57.00;;;;;;5002298;28;20441;-77
2023/05/10 11:47:43;;;;;;;;;;;20.50;57.10;;;;;;5000519;28;19960;-78
2023/05/10 11:50:09;;;;;;;;;;;20.30;57.10;;;;;;5021774;28;20974;-78
2023/05/10 11:52:37;;;;;;;;;;;20.30;57.20;;;;;;5017190;28;19921;-79
2023/05/10 11:55:03;;;;;;;;;;;20.30;57.20;;;;;;5023946;28;19922;-77
2023/05/10 11:57:28;;;;;;;;;;;20.30;57.20;;;;;;5006152;28;20407;-77
2023/05/10 11:59:57;;;;;;;;;;;20.30;57.20;;;;;;4990994;28;19925;-78
2023/05/10 12:02:22;;;;;;;;;;;20.40;57.40;;;;;;5020484;28;20542;-78
2023/05/10 12:04:48;;;;;;;;;;;20.40;57.30;;;;;;5011937;28;19921;-78
2023/05/10 12:07:13;;;;;;;;;;;20.40;57.20;;;;;;4992509;28;20497;-77
2023/05/10 12:10:01;;;;;;;;;;;20.40;57.20;;;;;;5004404;28;19921;-77
2023/05/10 12:12:27;;;;;;;;;;;20.50;57.20;;;;;;4998166;28;19937;-78
2023/05/10 12:14:52;;;;;;;;;;;20.50;57.20;;;;;;4998364;28;19928;-78
2023/05/10 12:17:18;;;;;;;;;;;20.50;57.20;;;;;;5010364;28;19921;-78
2023/05/10 12:19:43;;;;;;;;;;;20.50;57.10;;;;;;4997348;28;19969;-78
2023/05/10 13:13:55;;;;;;;;;;;20.50;56.90;;;;;;4994205;28;19940;-77
2023/05/10 13:16:21;;;;;;;;;;;20.60;56.90;;;;;;4995175;28;19922;-77
2023/05/10 13:18:46;;;;;;;;;;;20.60;56.90;;;;;;4999949;28;19928;-76
2023/05/10 13:21:12;;;;;;;;;;;20.60;56.90;;;;;;4997881;28;19964;-77
2023/05/10 13:23:37;;;;;;;;;;;20.60;56.90;;;;;;4979356;28;20372;-76
2023/05/10 13:26:02;;;;;;;;;;;20.60;56.80;;;;;;4988882;28;19921;-75
2023/05/10 13:28:29;;;;;;;;;;;20.60;56.90;;;;;;5011190;28;20040;-75
2023/05/10 13:30:54;;;;;;;;;;;20.60;56.90;;;;;;4993573;28;19932;-76
2023/05/10 13:33:20;;;;;;;;;;;20.60;56.80;;;;;;4998061;28;19922;-76
2023/05/10 13:35:45;;;;;;;;;;;20.60;56.80;;;;;;4994756;28;19963;-75
2023/05/10 13:38:11;;;;;;;;;;;20.60;56.90;;;;;;4995339;28;20431;-76
2023/05/10 13:40:36;;;;;;;;;;;20.60;56.90;;;;;;4984460;28;21735;-75
2023/05/10 13:43:02;;;;;;;;;;;20.60;56.90;;;;;;4999644;28;20338;-75
2023/05/10 13:45:27;;;;;;;;;;;20.60;56.80;;;;;;4999914;28;19925;-76
2023/05/10 13:47:53;;;;;;;;;;;20.50;56.80;;;;;;4999807;28;19967;-76
2023/05/10 13:50:18;;;;;;;;;;;20.50;56.90;;;;;;4997392;28;20874;-76
2023/05/10 13:52:44;;;;;;;;;;;20.50;56.90;;;;;;4997956;28;19944;-76
2023/05/10 13:55:12;;;;;;;;;;;20.50;56.90;;;;;;4995791;28;19975;-75
2023/05/10 13:57:37;;;;;;;;;;;20.50;56.80;;;;;;4997732;28;20023;-76
2023/05/10 14:00:03;;;;;;;;;;;20.50;56.90;;;;;;5000001;28;19925;-76
2023/05/10 14:02:28;;;;;;;;;;;20.50;57.00;;;;;;5001856;28;20509;-76
2023/05/10 14:04:54;;;;;;;;;;;20.40;56.90;;;;;;5016412;28;21460;-76
2023/05/10 14:07:19;;;;;;;;;;;20.40;56.90;;;;;;4996509;28;20043;-75
2023/05/10 14:09:45;;;;;;;;;;;20.40;56.90;;;;;;4997764;28;19957;-76
2023/05/10 14:12:11;;;;;;;;;;;20.40;57.00;;;;;;4995616;28;20233;-74
2023/05/10 14:14:36;;;;;;;;;;;20.30;57.00;;;;;;5011786;28;19922;-76
2023/05/10 14:17:02;;;;;;;;;;;20.30;57.00;;;;;;5000635;28;20564;-77
2023/05/10 14:19:27;;;;;;;;;;;20.30;57.00;;;;;;4986294;28;19925;-75
2023/05/10 14:21:53;;;;;;;;;;;20.20;57.00;;;;;;4998217;28;20012;-76
2023/05/10 14:24:18;;;;;;;;;;;20.20;57.10;;;;;;4999740;28;19929;-77
2023/05/10 14:26:44;;;;;;;;;;;20.20;57.20;;;;;;4981156;28;20309;-76
2023/05/10 14:29:09;;;;;;;;;;;20.10;57.10;;;;;;4998576;28;19940;-77
2023/05/10 14:31:35;;;;;;;;;;;20.20;57.20;;;;;;5000343;28;20052;-77
2023/05/10 14:34:00;;;;;;;;;;;20.10;57.10;;;;;;5001731;28;20000;-76
2023/05/10 14:36:26;;;;;;;;;;;20.20;57.20;;;;;;4996253;28;19926;-76
2023/05/10 14:38:51;;;;;;;;;;;20.20;57.20;;;;;;4997278;28;19924;-76
2023/05/10 14:41:17;;;;;;;;;;;20.20;57.20;;;;;;4998702;28;19975;-76
2023/05/10 14:43:43;;;;;;;;;;;20.20;57.20;;;;;;4997927;28;20340;-76
2023/05/10 14:46:08;;;;;;;;;;;20.20;57.10;;;;;;5001051;28;19925;-76
2023/05/10 14:48:34;;;;;;;;;;;20.20;57.10;;;;;;5003396;28;19960;-76
2023/05/10 14:50:59;;;;;;;;;;;20.30;57.10;;;;;;4997618;28;19925;-76
2023/05/10 14:53:25;;;;;;;;;;;20.20;57.00;;;;;;5003602;28;19959;-76
2023/05/10 14:55:50;;;;;;;;;;;20.30;57.10;;;;;;5001958;28;20012;-76
2023/05/10 14:58:16;;;;;;;;;;;20.30;57.00;;;;;;5001023;28;19922;-76
2023/05/10 15:00:42;;;;;;;;;;;20.40;57.00;;;;;;4999749;28;20015;-77
2023/05/10 15:03:07;;;;;;;;;;;20.40;57.00;;;;;;4999598;28;19921;-75
2023/05/10 15:05:33;;;;;;;;;;;20.40;56.90;;;;;;4992963;28;19973;-77
2023/05/10 15:07:58;;;;;;;;;;;20.40;56.90;;;;;;4983327;28;19925;-76
2023/05/10 15:10:23;;;;;;;;;;;20.50;56.90;;;;;;4999587;28;19961;-76
2023/05/10 15:12:49;;;;;;;;;;;20.50;56.90;;;;;;5007214;28;19925;-76
2023/05/10 15:15:15;;;;;;;;;;;20.50;56.90;;;;;;5017063;28;19917;-75
2023/05/10 15:17:40;;;;;;;;;;;20.50;56.90;;;;;;5018131;28;19925;-76
2023/05/10 15:20:06;;;;;;;;;;;20.50;56.90;;;;;;5017738;28;20019;-76
2023/05/10 15:22:32;;;;;;;;;;;20.50;56.90;;;;;;4999819;28;20044;-76
2023/05/10 15:24:58;;;;;;;;;;;20.40;56.90;;;;;;5003998;28;19932;-76
2023/05/10 15:27:24;;;;;;;;;;;20.40;56.90;;;;;;4994066;28;19921;-78
2023/05/10 15:29:49;;;;;;;;;;;20.40;56.90;;;;;;5011971;28;19928;-76
2023/05/10 15:32:15;;;;;;;;;;;20.40;56.90;;;;;;5001819;28;19956;-76
2023/05/10 15:34:40;;;;;;;;;;;20.30;56.90;;;;;;5017433;28;19932;-76
2023/05/10 15:37:06;;;;;;;;;;;20.30;57.00;;;;;;5018215;28;19952;-77
2023/05/10 15:39:31;;;;;;;;;;;20.30;57.00;;;;;;5000113;28;20293;-77
2023/05/10 15:41:57;;;;;;;;;;;20.20;57.00;;;;;;5013954;28;19921;-76
2023/05/10 15:44:22;;;;;;;;;;;20.20;57.00;;;;;;4996694;28;20403;-76
2023/05/10 15:46:48;;;;;;;;;;;20.20;57.10;;;;;;5016249;28;20702;-76
2023/05/10 15:49:13;;;;;;;;;;;20.10;57.10;;;;;;5006586;28;19924;-76
2023/05/10 15:51:39;;;;;;;;;;;20.10;57.10;;;;;;5020195;28;19945;-77
2023/05/10 15:54:06;;;;;;;;;;;20.00;57.10;;;;;;5020906;28;19928;-76
2023/05/10 15:56:32;;;;;;;;;;;20.00;57.20;;;;;;4984039;28;19928;-77
2023/05/10 15:58:58;;;;;;;;;;;19.90;57.20;;;;;;5020593;28;19921;-76
2023/05/10 16:01:23;;;;;;;;;;;19.90;57.30;;;;;;4996874;28;19921;-76
2023/05/10 16:03:48;;;;;;;;;;;19.90;57.30;;;;;;5016832;28;19929;-77
2023/05/10 16:06:14;;;;;;;;;;;19.90;57.40;;;;;;5018475;28;19980;-77
2023/05/10 16:08:39;;;;;;;;;;;19.80;57.30;;;;;;5002456;28;19929;-77
2023/05/10 16:11:06;;;;;;;;;;;19.80;57.40;;;;;;4997903;28;19925;-77
2023/05/10 16:13:31;;;;;;;;;;;19.80;57.40;;;;;;5017378;28;20012;-77
2023/05/10 16:15:57;;;;;;;;;;;19.80;57.40;;;;;;5000433;28;19921;-78
2023/05/10 16:18:22;;;;;;;;;;;19.70;57.40;;;;;;5017411;28;20644;-76
2023/05/10 16:20:48;;;;;;;;;;;19.70;57.40;;;;;;5018937;28;19921;-77
2023/05/10 16:23:14;;;;;;;;;;;19.70;57.40;;;;;;5018595;28;19921;-77
2023/05/10 16:25:39;;;;;;;;;;;19.70;57.40;;;;;;5000768;28;20496;-78
2023/05/10 16:28:04;;;;;;;;;;;19.60;57.40;;;;;;5000676;28;20440;-77
2023/05/10 16:30:30;;;;;;;;;;;19.60;57.40;;;;;;5003420;28;19921;-77
2023/05/10 16:32:56;;;;;;;;;;;19.60;57.50;;;;;;5019580;28;19921;-77
2023/05/10 16:35:22;;;;;;;;;;;19.60;57.50;;;;;;5005328;28;20016;-77
2023/05/10 16:37:48;;;;;;;;;;;19.60;57.50;;;;;;5003009;28;19921;-77
2023/05/10 16:40:14;;;;;;;;;;;19.50;57.50;;;;;;5019060;28;20388;-77
2023/05/10 16:42:39;;;;;;;;;;;19.50;57.50;;;;;;5016723;28;20039;-76
2023/05/10 16:45:08;;;;;;;;;;;19.50;57.60;;;;;;5003356;28;19921;-76
2023/05/10 16:47:37;;;;;;;;;;;19.50;57.60;;;;;;5018019;28;20648;-77
2023/05/10 16:50:03;;;;;;;;;;;19.50;57.60;;;;;;5002913;28;19978;-76
2023/05/10 16:52:28;;;;;;;;;;;19.40;57.60;;;;;;5002863;28;20330;-76
2023/05/10 16:54:54;;;;;;;;;;;19.40;57.60;;;;;;5018025;28;20000;-75
2023/05/10 16:57:20;;;;;;;;;;;19.40;57.70;;;;;;5004640;28;20631;-76
2023/05/10 16:59:45;;;;;;;;;;;19.40;57.70;;;;;;5001549;28;19921;-76